Terminal Aerodrome Forecast
Issued by NWS Twin Cities, MN

Home | Current Version | Previous Version | Graphics & Text | Print | Product List | Glossary On
Versions: 1 2 3 4 5 6 7 8 9 10 11 12 13 14 15 16 17
000
FTUS43 KMPX 121700
TAFEAU
TAF
KEAU 121738Z 1218/1318 28003KT P6SM BKN010 OVC100
     FM122000 28005KT P6SM VCTS SCT020CB OVC100
      TEMPO 1221/1224 2SM -TSRA BKN020CB
     FM130100 28006KT P6SM SCT050 BKN100
     FM130500 28004KT P6SM FEW100
     FM131400 31008KT P6SM SKC=

USA.gov is the U.S. government's official web portal to all federal, state and local government web resources and services.